Oakland Acres, Iowa
Current Conditions -  °F | °C
As of 6:15 PM on Sunday 25 Jan 2015 (Local Time) from KGGI Reporting Station
Overcast Overcast  
Wind Chill: 23°   Ceiling: 1400
Heat Index: 30°   Visibility: 10mi
Dew Point: 28°   Wind: 8mph
Humidity: 90%   Direction: 340°NNW
Pressure: 30.03"   Gusts: NA
Location:  41.7319°N, 92.7662°W
Report Text: KGGI 260015Z AUTO 34007KT 10SM OVC014 M01/M02 A3003 RMK AO2 T10101025
Loading
Personal Weather Stations






























Interactive Weather Map New forecast layout! Learn more

10-Day Weather Forecast

Advertisements
Track Severe Weather on mobile